Time;durP1;ratioP1;P1;durP2;ratioP2;P2;SDS_P1;SDS_P2;PMS_P1;PMS_P2;Temp;Humidity;BMP_temperature;BMP_pressure;BME280_temperature;BME280_humidity;BME280_pressure;Samples;Min_cycle;Max_cycle;Signal;HPM_P1;HPM_P2
2023/10/27 00:03:54;;;;;;;8.88;2.58;;;;;;;11.66;100.00;97581.03;12204552;19;20030;-80
2023/10/27 00:07:58;;;;;;;15.63;3.38;;;;;;;11.68;100.00;97578.78;12208355;19;20014;-80
2023/10/27 00:12:00;;;;;;;12.43;2.92;;;;;;;11.67;100.00;97582.66;12185603;19;20615;-80
2023/10/27 00:16:07;;;;;;;15.75;4.60;;;;;;;11.69;100.00;97583.19;12210300;19;20014;-80
2023/10/27 00:20:10;;;;;;;17.70;4.50;;;;;;;11.67;100.00;97585.44;12183130;19;20022;-80
2023/10/27 00:24:12;;;;;;;11.00;3.60;;;;;;;11.70;100.00;97582.03;12207762;19;20023;-80
2023/10/27 00:28:14;;;;;;;16.60;3.88;;;;;;;11.71;100.00;97575.38;12202835;19;20006;-81
2023/10/27 00:32:15;;;;;;;15.20;4.03;;;;;;;11.73;100.00;97567.63;12188106;19;20007;-81
2023/10/27 00:36:17;;;;;;;12.45;3.38;;;;;;;11.71;100.00;97563.53;12201915;19;20057;-80
2023/10/27 00:40:19;;;;;;;11.15;2.95;;;;;;;11.70;100.00;97573.75;12203385;19;20438;-80
2023/10/27 00:44:21;;;;;;;17.13;4.20;;;;;;;11.72;100.00;97562.41;12182864;19;20054;-80
2023/10/27 00:48:23;;;;;;;19.10;3.50;;;;;;;11.70;100.00;97559.97;12204863;19;20006;-80
2023/10/27 00:52:27;;;;;;;17.00;3.53;;;;;;;11.68;100.00;97562.22;12198657;19;20031;-80
2023/10/27 00:56:30;;;;;;;13.13;2.92;;;;;;;11.67;100.00;97568.06;12179953;19;20287;-80
2023/10/27 01:00:31;;;;;;;15.35;3.35;;;;;;;11.65;100.00;97562.84;12197652;19;20038;-79
2023/10/27 01:04:34;;;;;;;23.92;3.63;;;;;;;11.65;100.00;97554.56;12199007;19;20019;-80
2023/10/27 01:08:37;;;;;;;16.98;3.53;;;;;;;11.62;100.00;97557.94;12181750;19;20014;-80
2023/10/27 01:12:43;;;;;;;17.65;4.03;;;;;;;11.58;100.00;97543.16;12209181;19;20030;-80
2023/10/27 01:16:45;;;;;;;12.68;2.55;;;;;;;11.55;100.00;97535.50;12203866;19;20070;-80
2023/10/27 01:20:47;;;;;;;10.65;3.05;;;;;;;11.52;100.00;97531.44;12186359;19;20011;-80
2023/10/27 01:24:50;;;;;;;;;;;;;;;11.48;100.00;97521.31;12210481;19;20654;-80
2023/10/27 01:28:52;;;;;;;17.13;3.03;;;;;;;11.49;100.00;97522.97;12191542;19;21172;-80
2023/10/27 01:32:54;;;;;;;10.13;2.78;;;;;;;11.51;100.00;97526.22;12187443;19;20010;-80
2023/10/27 01:36:55;;;;;;;16.65;3.15;;;;;;;11.51;100.00;97517.94;12211153;19;20003;-81
2023/10/27 01:40:57;;;;;;;10.32;2.97;;;;;;;11.53;100.00;97522.03;12212146;19;20508;-80
2023/10/27 01:45:00;;;;;;;18.17;3.15;;;;;;;11.54;100.00;97509.88;12185741;19;20010;-81
2023/10/27 01:49:03;;;;;;;10.55;2.92;;;;;;;11.54;100.00;97518.16;12214831;19;20011;-80
2023/10/27 01:53:05;;;;;;;13.70;2.95;;;;;;;11.52;100.00;97514.88;12212869;19;20031;-80
2023/10/27 01:57:06;;;;;;;11.23;3.53;;;;;;;11.52;100.00;97509.38;12187961;19;20058;-81
2023/10/27 02:01:08;;;;;;;17.33;3.42;;;;;;;11.50;100.00;97516.31;12202570;19;20003;-80
2023/10/27 02:05:10;;;;;;;14.33;3.23;;;;;;;11.48;100.00;97510.28;12183772;19;20039;-80
2023/10/27 02:09:12;;;;;;;18.90;3.05;;;;;;;11.50;100.00;97514.38;12212759;19;20251;-80
2023/10/27 02:13:15;;;;;;;;;;;;;;;11.53;100.00;97519.25;12206817;19;20038;-80
2023/10/27 02:17:17;;;;;;;15.93;3.35;;;;;;;11.60;100.00;97508.63;12184505;19;19911;-81
2023/10/27 02:21:19;;;;;;;16.42;4.15;;;;;;;11.71;100.00;97500.91;12197634;19;20007;-80
2023/10/27 02:25:21;;;;;;;13.90;3.15;;;;;;;11.78;100.00;97498.53;12205437;19;20073;-81
2023/10/27 02:29:22;;;;;;;14.27;2.93;;;;;;;11.81;100.00;97500.66;12185665;19;20014;-80
2023/10/27 02:33:24;;;;;;;20.65;3.58;;;;;;;11.81;100.00;97486.88;12205960;19;20007;-81
2023/10/27 02:37:26;;;;;;;17.05;3.20;;;;;;;11.81;100.00;97481.34;12203075;19;20012;-80
2023/10/27 02:41:28;;;;;;;13.15;3.88;;;;;;;11.83;100.00;97479.06;12187044;19;20026;-81
2023/10/27 02:45:30;;;;;;;11.07;3.40;;;;;;;11.86;100.00;97478.47;12216973;19;20600;-81
2023/10/27 02:49:32;;;;;;;10.30;3.33;;;;;;;11.90;100.00;97472.31;12220185;19;20465;-81
2023/10/27 02:53:33;;;;;;;11.52;3.10;;;;;;;11.92;100.00;97475.59;12190712;19;20021;-81
2023/10/27 02:57:36;;;;;;;12.07;2.95;;;;;;;11.94;100.00;97470.56;12205191;19;20006;-81
2023/10/27 03:01:38;;;;;;;12.88;3.15;;;;;;;11.99;100.00;97475.97;12200770;19;20026;-81
2023/10/27 03:05:39;;;;;;;15.52;3.17;;;;;;;12.00;100.00;97467.34;12185246;19;20006;-81
2023/10/27 03:09:41;;;;;;;13.88;3.72;;;;;;;12.02;100.00;97480.84;12212984;19;20621;-81
2023/10/27 03:13:43;;;;;;;13.13;3.70;;;;;;;12.00;100.00;97481.16;12207550;19;20015;-80
2023/10/27 03:17:45;;;;;;;19.38;5.43;;;;;;;12.05;100.00;97475.50;12185713;19;20046;-80
2023/10/27 03:21:47;;;;;;;18.60;7.37;;;;;;;12.04;100.00;97473.88;12204451;19;20099;-80
2023/10/27 03:25:49;;;;;;;27.05;7.13;;;;;;;12.03;100.00;97469.47;12206445;19;20310;-80
2023/10/27 03:29:51;;;;;;;24.35;6.95;;;;;;;12.05;100.00;97474.72;12184755;19;20488;-81
2023/10/27 03:33:52;;;;;;;29.63;8.95;;;;;;;12.09;100.00;97475.69;12199814;19;20013;-81
2023/10/27 03:37:54;;;;;;;27.65;8.60;;;;;;;12.12;100.00;97477.00;12195184;19;21249;-81
2023/10/27 03:41:56;;;;;;;32.17;8.82;;;;;;;12.14;100.00;97470.03;12182668;19;19998;-80
2023/10/27 03:45:58;;;;;;;32.88;10.48;;;;;;;12.15;100.00;97474.41;12195957;19;20023;-80
2023/10/27 03:50:00;;;;;;;34.22;10.60;;;;;;;12.17;100.00;97461.13;12188311;19;20073;-81
2023/10/27 03:54:01;;;;;;;30.98;11.15;;;;;;;12.22;100.00;97463.72;12174092;19;20014;-82
2023/10/27 03:58:16;;;;;;;31.85;11.75;;;;;;;12.23;100.00;97462.59;12194471;19;20441;-80
2023/10/27 04:02:19;;;;;;;37.45;12.55;;;;;;;12.26;100.00;97461.97;12180513;19;20015;-80
2023/10/27 04:06:21;;;;;;;38.08;12.30;;;;;;;12.27;100.00;97460.03;12202344;19;20015;-81
2023/10/27 04:10:28;;;;;;;39.67;12.85;;;;;;;12.25;100.00;97465.03;12203365;19;21443;-80
2023/10/27 04:14:30;;;;;;;30.67;12.45;;;;;;;12.28;100.00;97462.47;12172783;19;21143;-80
2023/10/27 04:18:31;;;;;;;26.80;11.23;;;;;;;12.27;100.00;97460.84;12196523;19;20010;-80
2023/10/27 04:22:33;;;;;;;33.00;12.18;;;;;;;12.28;100.00;97450.59;12200800;19;20010;-80
2023/10/27 04:26:36;;;;;;;35.47;10.33;;;;;;;12.29;100.00;97457.78;12181211;19;20082;-80
2023/10/27 04:30:38;;;;;;;36.15;11.05;;;;;;;12.29;100.00;97458.56;12199746;19;20027;-79
2023/10/27 04:34:40;;;;;;;25.10;9.10;;;;;;;12.27;100.00;97463.59;12197332;19;20022;-80
2023/10/27 04:38:44;;;;;;;21.55;9.23;;;;;;;12.24;100.00;97453.19;12175153;19;20015;-79
2023/10/27 04:42:46;;;;;;;32.65;9.80;;;;;;;12.21;100.00;97451.06;12199135;19;20006;-79
2023/10/27 04:46:50;;;;;;;19.23;7.75;;;;;;;12.19;100.00;97445.03;12208524;19;20062;-81
2023/10/27 04:50:55;;;;;;;22.20;8.80;;;;;;;12.18;100.00;97443.41;12190184;19;20022;-79
2023/10/27 04:54:58;;;;;;;23.58;7.05;;;;;;;12.18;100.00;97437.09;12206795;19;20010;-81
2023/10/27 04:59:00;;;;;;;18.25;6.00;;;;;;;12.19;100.00;97434.00;12206875;19;20019;-81
2023/10/27 05:03:02;;;;;;;15.48;6.63;;;;;;;12.19;100.00;97425.72;12185092;19;20023;-80
2023/10/27 05:07:05;;;;;;;20.90;5.88;;;;;;;12.17;100.00;97430.75;12209287;19;20083;-80
2023/10/27 05:11:07;;;;;;;24.45;6.97;;;;;;;12.15;100.00;97427.50;12189421;19;20006;-80
2023/10/27 05:15:09;;;;;;;17.50;6.47;;;;;;;12.10;100.00;97427.63;12208030;19;20077;-80
2023/10/27 05:19:12;;;;;;;12.63;4.20;;;;;;;12.11;100.00;97433.97;12206046;19;20015;-79
2023/10/27 05:23:15;;;;;;;20.90;6.57;;;;;;;12.10;100.00;97441.41;12187065;19;20069;-79
2023/10/27 05:27:17;;;;;;;22.50;6.85;;;;;;;12.08;100.00;97452.00;12209136;19;20002;-80
2023/10/27 05:31:20;;;;;;;;;;;;;;;12.04;100.00;97445.44;12210077;19;20074;-80
2023/10/27 05:35:22;;;;;;;15.15;5.47;;;;;;;11.95;100.00;97437.13;12178619;19;19922;-80
2023/10/27 05:39:26;;;;;;;14.80;5.97;;;;;;;11.88;100.00;97447.81;12202691;19;20480;-79
2023/10/27 05:43:28;;;;;;;18.95;6.38;;;;;;;11.86;100.00;97448.13;12204979;19;20473;-79
2023/10/27 05:47:30;;;;;;;14.40;5.53;;;;;;;11.81;100.00;97447.44;12186554;19;20006;-80
2023/10/27 05:51:34;;;;;;;12.88;5.05;;;;;;;11.82;100.00;97455.38;12199037;19;20006;-79
2023/10/27 05:55:36;;;;;;;14.35;5.13;;;;;;;11.78;100.00;97459.91;12199472;19;20010;-82
2023/10/27 05:59:42;;;;;;;13.55;6.20;;;;;;;11.74;100.00;97464.41;12179329;19;20017;-81
2023/10/27 06:03:46;;;;;;;;;;;;;;;11.74;100.00;97458.06;12202509;19;20011;-81
2023/10/27 06:07:49;;;;;;;11.57;4.88;;;;;;;11.76;100.00;97462.16;12202861;19;19997;-81
2023/10/27 06:11:51;;;;;;;12.07;5.25;;;;;;;11.72;100.00;97465.84;12181058;19;20034;-80
2023/10/27 06:15:53;;;;;;;9.98;5.35;;;;;;;11.67;100.00;97458.53;12200937;19;20486;-78
2023/10/27 06:19:55;;;;;;;11.25;4.53;;;;;;;11.63;100.00;97460.28;12198895;19;20015;-81
2023/10/27 06:24:14;;;;;;;9.70;4.22;;;;;;;11.60;100.00;97452.63;12180088;19;20045;-82
2023/10/27 06:28:16;;;;;;;7.95;3.40;;;;;;;11.48;100.00;97444.09;12198347;19;20418;-78
2023/10/27 06:32:19;;;;;;;10.33;4.27;;;;;;;11.53;100.00;97447.56;12181063;19;20044;-78
2023/10/27 06:36:21;;;;;;;9.55;3.38;;;;;;;11.54;100.00;97446.44;12195843;19;20091;-81
2023/10/27 06:40:23;;;;;;;8.77;3.15;;;;;;;11.53;100.00;97452.25;12205475;19;20591;-79
2023/10/27 06:44:26;;;;;;;7.72;3.67;;;;;;;11.54;100.00;97448.38;12181432;19;20091;-80
2023/10/27 06:48:28;;;;;;;9.88;3.28;;;;;;;11.57;100.00;97443.06;12192049;19;20011;-79
2023/10/27 06:52:32;;;;;;;8.55;3.60;;;;;;;11.68;100.00;97448.31;12162413;19;20573;-79
2023/10/27 06:56:35;;;;;;;6.18;2.42;;;;;;;11.74;100.00;97445.09;12172377;19;20021;-79
2023/10/27 07:00:37;;;;;;;5.30;1.90;;;;;;;11.69;100.00;97442.50;12200719;19;20006;-80
2023/10/27 07:04:39;;;;;;;6.80;2.20;;;;;;;11.71;100.00;97434.69;12181556;19;20023;-78
2023/10/27 07:08:43;;;;;;;6.20;1.63;;;;;;;11.73;100.00;97432.44;12189363;19;20011;-80
2023/10/27 07:12:45;;;;;;;4.68;2.28;;;;;;;11.77;100.00;97436.19;12200423;19;20007;-80
2023/10/27 07:16:51;;;;;;;4.65;1.67;;;;;;;11.74;100.00;97431.31;12175739;19;20015;-81
2023/10/27 07:20:53;;;;;;;4.60;1.50;;;;;;;11.74;100.00;97431.31;12198591;19;20007;-79
2023/10/27 07:24:55;;;;;;;4.43;1.75;;;;;;;11.72;100.00;97441.84;12177094;19;20007;-80
2023/10/27 07:28:57;;;;;;;4.00;1.63;;;;;;;11.71;100.00;97431.94;12199033;19;20007;-80
2023/10/27 07:33:00;;;;;;;3.73;1.77;;;;;;;11.73;100.00;97431.63;12197905;19;20020;-79
2023/10/27 07:37:04;;;;;;;4.68;1.50;;;;;;;11.77;100.00;97429.84;12175792;19;20014;-80
2023/10/27 07:41:06;;;;;;;2.88;1.70;;;;;;;11.71;100.00;97433.88;12197106;19;20581;-80
2023/10/27 07:45:08;;;;;;;4.23;2.50;;;;;;;11.75;100.00;97427.44;12199233;19;19999;-80
2023/10/27 07:49:10;;;;;;;5.72;2.70;;;;;;;11.85;100.00;97420.84;12177356;19;20006;-79
2023/10/27 07:53:12;;;;;;;4.65;2.28;;;;;;;11.83;100.00;97423.88;12197940;19;20035;-80
2023/10/27 07:57:14;;;;;;;6.10;2.40;;;;;;;11.80;100.00;97441.06;12200321;19;20014;-80
2023/10/27 08:01:16;;;;;;;7.82;2.75;;;;;;;11.81;100.00;97434.44;12173572;19;20014;-80
2023/10/27 08:05:18;;;;;;;5.40;2.80;;;;;;;11.84;100.00;97446.81;12191884;19;20384;-80
2023/10/27 08:09:20;;;;;;;5.83;2.40;;;;;;;11.79;100.00;97442.22;12196073;19;21289;-79
2023/10/27 08:13:22;;;;;;;6.68;2.45;;;;;;;11.78;100.00;97442.53;12176634;19;20006;-80
2023/10/27 08:17:25;;;;;;;5.15;2.33;;;;;;;11.77;100.00;97460.22;12195160;19;19999;-79
2023/10/27 08:21:27;;;;;;;8.10;2.95;;;;;;;11.75;100.00;97466.06;12205066;19;20037;-80
2023/10/27 08:25:29;;;;;;;3.10;1.60;;;;;;;11.73;100.00;97481.28;12184440;19;20018;-79
2023/10/27 08:29:31;;;;;;;8.50;2.72;;;;;;;11.71;100.00;97492.63;12205258;19;20014;-80
2023/10/27 08:33:34;;;;;;;8.07;2.03;;;;;;;11.66;100.00;97508.47;12208463;19;20043;-80
2023/10/27 08:37:36;;;;;;;5.40;1.70;;;;;;;11.60;100.00;97511.38;12179285;19;20003;-79
2023/10/27 08:41:38;;;;;;;2.97;1.57;;;;;;;11.62;100.00;97516.56;12205806;19;20002;-79
2023/10/27 08:45:41;;;;;;;7.30;1.75;;;;;;;11.62;100.00;97533.94;12205011;19;20271;-79
2023/10/27 08:49:46;;;;;;;5.25;1.60;;;;;;;11.62;100.00;97544.16;12182064;19;20370;-79
2023/10/27 08:53:48;;;;;;;3.67;1.17;;;;;;;11.57;100.00;97547.88;12204837;19;20042;-79
2023/10/27 08:57:54;;;;;;;2.72;1.63;;;;;;;11.58;100.00;97560.53;12205173;19;20021;-79
2023/10/27 09:01:57;;;;;;;3.55;1.20;;;;;;;11.52;100.00;97566.47;12183443;19;20094;-79
2023/10/27 09:05:59;;;;;;;3.27;1.20;;;;;;;11.50;100.00;97580.56;12197957;19;20495;-80
2023/10/27 09:10:07;;;;;;;5.38;1.20;;;;;;;11.52;100.00;97599.56;12183582;19;20007;-80
2023/10/27 09:14:31;;;;;;;2.22;1.10;;;;;;;11.59;100.00;97605.47;12208233;19;20078;-80
2023/10/27 09:18:35;;;;;;;3.20;0.98;;;;;;;11.66;100.00;97616.91;12210732;19;20026;-80
2023/10/27 09:22:37;;;;;;;1.92;0.82;;;;;;;11.71;100.00;97630.56;12186737;19;20006;-79
2023/10/27 09:26:46;;;;;;;1.20;0.73;;;;;;;11.76;100.00;97649.78;12205538;19;20014;-79
2023/10/27 09:30:51;;;;;;;2.55;0.90;;;;;;;11.83;100.00;97650.16;12200119;19;20011;-79
2023/10/27 09:35:17;;;;;;;0.77;0.70;;;;;;;11.90;100.00;97655.31;12183303;19;20015;-78
2023/10/27 09:39:20;;;;;;;1.92;0.80;;;;;;;11.96;100.00;97654.06;12204150;19;20010;-79
2023/10/27 09:43:28;;;;;;;1.75;0.93;;;;;;;12.11;100.00;97655.63;12183231;19;20006;-79
2023/10/27 09:47:44;;;;;;;2.08;0.80;;;;;;;12.19;100.00;97663.16;12203972;19;20010;-79
2023/10/27 09:51:49;;;;;;;5.45;1.27;;;;;;;12.34;100.00;97669.44;12204855;19;20030;-80
2023/10/27 09:55:52;;;;;;;2.22;1.00;;;;;;;12.43;100.00;97679.44;12182083;19;20022;-78
2023/10/27 09:59:57;;;;;;;4.40;1.30;;;;;;;12.63;100.00;97677.28;12198345;19;20093;-78
2023/10/27 10:03:59;;;;;;;3.85;1.30;;;;;;;12.86;100.00;97680.84;12174504;19;20038;-77
2023/10/27 10:08:08;;;;;;;3.37;0.90;;;;;;;12.91;100.00;97689.81;12189035;19;20038;-78
2023/10/27 10:12:10;;;;;;;4.18;0.98;;;;;;;13.07;100.00;97692.97;12200144;19;20019;-79
2023/10/27 10:16:13;;;;;;;0.63;0.50;;;;;;;13.19;100.00;97693.19;12180070;19;20446;-78
2023/10/27 10:20:15;;;;;;;2.95;0.93;;;;;;;13.36;100.00;97686.97;12204148;19;20011;-79
2023/10/27 10:24:17;;;;;;;2.00;0.77;;;;;;;13.51;100.00;97688.47;12213249;19;19999;-78
2023/10/27 10:28:19;;;;;;;1.67;0.75;;;;;;;13.66;100.00;97696.31;12200758;19;20017;-78
2023/10/27 10:32:29;;;;;;;1.20;0.60;;;;;;;13.73;100.00;97693.06;12208923;19;20006;-79
2023/10/27 10:36:32;;;;;;;2.95;0.80;;;;;;;13.79;100.00;97699.28;12206731;19;20006;-77
2023/10/27 10:40:49;;;;;;;4.68;0.90;;;;;;;13.75;100.00;97701.06;12183673;19;20022;-79
2023/10/27 10:45:00;;;;;;;2.10;0.75;;;;;;;13.66;100.00;97690.78;12204522;19;20025;-78
2023/10/27 10:49:02;;;;;;;1.40;0.77;;;;;;;13.56;100.00;97693.84;12181164;19;20016;-78
2023/10/27 10:53:10;;;;;;;1.90;1.10;;;;;;;13.45;100.00;97693.34;12201445;19;20011;-78
2023/10/27 10:57:19;;;;;;;3.53;1.13;;;;;;;13.32;100.00;97704.50;12198659;19;20131;-78
2023/10/27 11:01:22;;;;;;;3.67;1.10;;;;;;;13.20;100.00;97708.63;12155261;19;20505;-77
2023/10/27 11:05:24;;;;;;;3.65;1.40;;;;;;;13.17;100.00;97711.22;12185612;19;20011;-78
2023/10/27 11:09:27;;;;;;;1.80;1.20;;;;;;;13.19;100.00;97707.03;12187925;19;20010;-78
2023/10/27 11:13:31;;;;;;;4.22;1.30;;;;;;;13.54;100.00;97696.13;12172708;19;20018;-78
2023/10/27 11:17:49;;;;;;;4.10;1.60;;;;;;;13.98;100.00;97699.81;12190388;19;20007;-78
2023/10/27 11:21:53;;;;;;;1.88;1.42;;;;;;;14.34;100.00;97695.94;12192037;19;20366;-78
2023/10/27 11:26:05;;;;;;;3.60;2.13;;;;;;;14.52;100.00;97686.50;12169382;19;20027;-78
2023/10/27 11:30:07;;;;;;;3.17;1.60;;;;;;;14.59;100.00;97681.25;12191114;19;20006;-78
2023/10/27 11:34:18;;;;;;;4.13;1.83;;;;;;;14.43;100.00;97687.63;12172581;19;20335;-78
2023/10/27 11:38:22;;;;;;;9.38;2.70;;;;;;;14.32;100.00;97687.13;12192580;19;20537;-79
2023/10/27 11:42:25;;;;;;;5.35;1.58;;;;;;;14.28;100.00;97694.47;12197059;19;20003;-79
2023/10/27 11:46:27;;;;;;;6.88;2.25;;;;;;;14.41;100.00;97696.25;12177218;19;20006;-79
2023/10/27 11:50:29;;;;;;;3.30;1.48;;;;;;;14.36;100.00;97704.72;12192847;19;20003;-78
2023/10/27 11:54:31;;;;;;;2.73;1.80;;;;;;;14.24;100.00;97702.59;12195351;19;20011;-79
2023/10/27 11:58:33;;;;;;;2.90;1.33;;;;;;;14.10;100.00;97715.81;12172739;19;20002;-78
2023/10/27 12:02:35;;;;;;;4.53;1.33;;;;;;;14.37;100.00;97703.59;12190789;19;20103;-79
2023/10/27 12:06:41;;;;;;;5.80;1.40;;;;;;;14.66;100.00;97710.44;12192502;19;20700;-79
2023/10/27 12:10:44;;;;;;;5.82;1.52;;;;;;;14.91;100.00;97706.81;12169033;19;20031;-79
2023/10/27 12:14:46;;;;;;;3.95;1.30;;;;;;;15.48;100.00;97700.91;12192786;19;20047;-79
2023/10/27 12:18:48;;;;;;;3.08;1.10;;;;;;;16.29;100.00;97690.63;12195616;19;20362;-81
2023/10/27 12:22:50;;;;;;;3.03;1.20;;;;;;;17.14;100.00;97711.63;12171737;19;20014;-80
2023/10/27 12:26:55;;;;;;;2.38;0.82;;;;;;;17.52;100.00;97702.19;12180986;19;20347;-80
2023/10/27 12:31:00;;;;;;;5.18;1.10;;;;;;;17.23;100.00;97712.34;12167185;19;20034;-79
2023/10/27 12:35:02;;;;;;;4.10;1.30;;;;;;;16.78;100.00;97715.91;12190309;19;20015;-80
2023/10/27 12:39:05;;;;;;;;;;;;;;;16.28;100.00;97716.00;12190279;19;20030;-80
2023/10/27 12:43:07;;;;;;;2.80;0.98;;;;;;;15.83;100.00;97722.97;12171681;19;19922;-80
2023/10/27 12:47:10;;;;;;;6.00;1.60;;;;;;;15.61;100.00;97720.44;12191976;19;20006;-79
2023/10/27 12:51:11;;;;;;;5.85;1.60;;;;;;;15.48;100.00;97717.56;12185487;19;20002;-79
2023/10/27 12:55:14;;;;;;;3.85;1.05;;;;;;;15.25;100.00;97713.41;12168328;19;20533;-79
2023/10/27 12:59:17;;;;;;;3.72;1.20;;;;;;;15.17;100.00;97715.06;12197977;19;20017;-80
2023/10/27 13:03:19;;;;;;;2.55;1.10;;;;;;;15.31;100.00;97716.81;12202879;19;20014;-77
2023/10/27 13:07:21;;;;;;;3.00;1.33;;;;;;;15.38;100.00;97711.59;12188459;19;20018;-78
2023/10/27 13:11:23;;;;;;;6.60;1.67;;;;;;;15.28;100.00;97701.63;12208061;19;20045;-77
2023/10/27 13:15:25;;;;;;;6.00;1.55;;;;;;;15.26;100.00;97701.97;12207505;19;20015;-78
2023/10/27 13:19:28;;;;;;;6.70;1.77;;;;;;;15.58;100.00;97704.44;12182579;19;20011;-79
2023/10/27 13:23:31;;;;;;;3.85;1.17;;;;;;;15.70;100.00;97712.91;12210899;19;20062;-79
2023/10/27 13:27:33;;;;;;;2.73;0.80;;;;;;;15.43;100.00;97714.97;12208174;19;20020;-79
2023/10/27 13:31:37;;;;;;;2.33;1.00;;;;;;;15.20;100.00;97716.34;12186051;19;20013;-79
2023/10/27 13:35:39;;;;;;;1.50;0.90;;;;;;;14.96;100.00;97720.50;12216384;19;20028;-80
2023/10/27 13:39:41;;;;;;;4.70;1.25;;;;;;;14.86;100.00;97725.59;12224741;19;20015;-80
2023/10/27 13:43:44;;;;;;;1.58;0.70;;;;;;;15.07;100.00;97729.28;12202582;19;22085;-79
2023/10/27 13:47:46;;;;;;;5.22;1.17;;;;;;;15.04;100.00;97736.28;12225169;19;20009;-78
2023/10/27 13:51:48;;;;;;;4.28;1.10;;;;;;;14.80;100.00;97734.06;12226364;19;20501;-78
2023/10/27 13:55:51;;;;;;;2.38;0.68;;;;;;;14.54;100.00;97739.63;12207880;19;20013;-77
2023/10/27 13:59:53;;;;;;;5.35;0.88;;;;;;;14.41;100.00;97754.44;12242206;19;20040;-78
2023/10/27 14:03:55;;;;;;;2.63;0.87;;;;;;;14.39;100.00;97753.94;12221942;19;20047;-78
2023/10/27 14:07:57;;;;;;;1.83;0.55;;;;;;;14.36;100.00;97755.38;12239190;19;20033;-79
2023/10/27 14:12:00;;;;;;;5.00;1.08;;;;;;;14.55;100.00;97740.47;12237411;19;20006;-78
2023/10/27 14:16:03;;;;;;;5.10;0.88;;;;;;;14.57;100.00;97732.59;12218920;19;20056;-77
2023/10/27 14:20:06;;;;;;;3.78;0.90;;;;;;;14.57;100.00;97738.16;12220711;19;20468;-79
2023/10/27 14:24:10;;;;;;;1.50;0.77;;;;;;;14.58;100.00;97745.34;12220180;19;20054;-78
2023/10/27 14:28:12;;;;;;;3.05;0.90;;;;;;;14.55;100.00;97741.28;12194987;19;20090;-79
2023/10/27 14:32:15;;;;;;;4.53;1.30;;;;;;;14.55;100.00;97746.00;12219323;19;20003;-79
2023/10/27 14:36:16;;;;;;;2.35;0.80;;;;;;;14.61;100.00;97753.00;12214674;19;20034;-79
2023/10/27 14:40:24;;;;;;;2.78;0.93;;;;;;;14.68;100.00;97756.09;12193405;19;20009;-79
2023/10/27 14:44:26;;;;;;;2.63;0.85;;;;;;;14.76;100.00;97749.72;12214101;19;20015;-79
2023/10/27 14:48:28;;;;;;;2.10;0.90;;;;;;;14.87;100.00;97764.06;12212094;19;20800;-79
2023/10/27 14:52:30;;;;;;;5.90;0.90;;;;;;;14.89;100.00;97767.31;12189684;19;20007;-78
2023/10/27 14:56:35;;;;;;;3.63;0.82;;;;;;;14.98;100.00;97768.13;12207465;19;20018;-80
2023/10/27 15:00:36;;;;;;;2.72;1.00;;;;;;;15.01;100.00;97786.06;12212648;19;20014;-80
2023/10/27 15:04:39;;;;;;;4.88;1.15;;;;;;;14.93;100.00;97790.50;12199346;19;20018;-79
2023/10/27 15:08:43;;;;;;;4.55;1.05;;;;;;;14.82;100.00;97791.97;12197728;19;20011;-78
2023/10/27 15:12:46;;;;;;;2.80;0.88;;;;;;;14.77;100.00;97792.13;12187118;19;20015;-78
2023/10/27 15:16:48;;;;;;;3.87;1.00;;;;;;;14.80;100.00;97792.28;12177968;19;20025;-78
2023/10/27 15:21:08;;;;;;;2.15;0.98;;;;;;;14.74;100.00;97810.22;12196470;19;20264;-79
2023/10/27 15:25:11;;;;;;;3.00;1.40;;;;;;;14.76;100.00;97796.06;12185751;19;20067;-80
2023/10/27 15:29:13;;;;;;;1.27;1.00;;;;;;;14.88;100.00;97809.25;12197214;19;20108;-79
2023/10/27 15:33:14;;;;;;;3.88;1.15;;;;;;;14.70;100.00;97809.25;12198163;19;20007;-80
2023/10/27 15:37:17;;;;;;;2.70;1.00;;;;;;;14.64;100.00;97816.09;12177141;19;20013;-78
2023/10/27 15:41:38;;;;;;;1.88;0.90;;;;;;;14.53;100.00;97810.06;12203872;19;20010;-79
2023/10/27 15:45:41;;;;;;;1.15;0.95;;;;;;;14.31;100.00;97810.97;12196794;19;20026;-79
2023/10/27 15:49:45;;;;;;;4.22;1.10;;;;;;;14.11;100.00;97815.16;12176297;19;20035;-80
2023/10/27 15:53:48;;;;;;;5.18;1.20;;;;;;;14.06;100.00;97817.25;12197486;19;20032;-79
2023/10/27 15:57:51;;;;;;;2.75;1.02;;;;;;;13.96;100.00;97814.81;12196557;19;20011;-79
2023/10/27 16:01:53;;;;;;;4.97;1.48;;;;;;;13.81;100.00;97816.03;12167353;19;20014;-79
2023/10/27 16:05:56;;;;;;;;;;;;;;;13.59;100.00;97814.16;12185444;19;20014;-79
2023/10/27 16:09:58;;;;;;;2.00;1.30;;;;;;;13.49;100.00;97825.50;12165464;19;19903;-79
2023/10/27 16:14:00;;;;;;;1.83;1.30;;;;;;;13.45;100.00;97830.84;12180860;19;20089;-79
2023/10/27 16:18:04;;;;;;;5.03;1.33;;;;;;;13.47;100.00;97831.34;12192074;19;20374;-79
2023/10/27 16:22:07;;;;;;;4.68;1.17;;;;;;;13.48;100.00;97852.34;12187662;19;20018;-79
2023/10/27 16:26:09;;;;;;;8.03;1.43;;;;;;;13.37;100.00;97845.44;12206692;19;20421;-79
2023/10/27 16:30:13;;;;;;;6.00;1.25;;;;;;;13.22;100.00;97846.63;12209492;19;20442;-79
2023/10/27 16:34:15;;;;;;;4.63;1.40;;;;;;;13.08;100.00;97846.69;12182484;19;20014;-78
2023/10/27 16:38:17;;;;;;;2.92;1.10;;;;;;;12.94;100.00;97849.53;12199569;19;20011;-80
2023/10/27 16:42:19;;;;;;;2.95;1.00;;;;;;;12.81;100.00;97849.56;12209562;19;20017;-79
2023/10/27 16:46:23;;;;;;;3.05;1.40;;;;;;;12.77;100.00;97860.44;12188971;19;20015;-78
2023/10/27 16:50:25;;;;;;;6.32;1.70;;;;;;;12.69;100.00;97858.41;12198272;19;20011;-79
2023/10/27 16:54:28;;;;;;;1.95;1.00;;;;;;;12.57;100.00;97864.47;12207751;19;20014;-79
2023/10/27 16:58:30;;;;;;;2.17;1.20;;;;;;;12.50;100.00;97856.59;12180500;19;20023;-79
2023/10/27 17:02:33;;;;;;;2.60;1.33;;;;;;;12.45;100.00;97865.00;12207248;19;20014;-79
2023/10/27 17:06:35;;;;;;;5.60;1.30;;;;;;;12.36;100.00;97874.31;12203960;19;20033;-79
2023/10/27 17:10:37;;;;;;;2.43;1.20;;;;;;;12.35;100.00;97869.94;12187228;19;20029;-77
2023/10/27 17:14:39;;;;;;;3.65;1.20;;;;;;;12.37;100.00;97882.28;12202637;19;20013;-79
2023/10/27 17:18:42;;;;;;;2.13;1.08;;;;;;;12.35;100.00;97883.75;12208300;19;20051;-80
2023/10/27 17:22:44;;;;;;;1.80;1.15;;;;;;;12.30;100.00;97885.47;12185369;19;20056;-78
2023/10/27 17:26:51;;;;;;;3.20;1.38;;;;;;;12.25;100.00;97888.31;12205906;19;20014;-79
2023/10/27 17:30:54;;;;;;;1.60;0.75;;;;;;;12.22;100.00;97891.72;12190761;19;20066;-79
2023/10/27 17:34:57;;;;;;;7.00;1.20;;;;;;;12.19;100.00;97892.31;12206512;19;20038;-79
2023/10/27 17:38:59;;;;;;;3.33;1.25;;;;;;;12.18;100.00;97887.13;12205876;19;20011;-79
2023/10/27 17:43:01;;;;;;;8.75;2.00;;;;;;;12.15;100.00;97888.53;12192152;19;20355;-80
2023/10/27 17:47:04;;;;;;;6.75;1.60;;;;;;;12.13;100.00;97885.25;12211680;19;20031;-79
2023/10/27 17:51:14;;;;;;;5.38;1.20;;;;;;;12.09;100.00;97879.56;12209129;19;20007;-79
2023/10/27 17:55:16;;;;;;;7.47;1.00;;;;;;;12.06;100.00;97885.69;12193515;19;20035;-79
2023/10/27 17:59:19;;;;;;;2.45;1.27;;;;;;;12.06;100.00;97888.44;12207030;19;20014;-79
2023/10/27 18:03:23;;;;;;;3.60;1.58;;;;;;;12.02;100.00;97894.91;12213274;19;20014;-79
2023/10/27 18:07:26;;;;;;;7.07;2.03;;;;;;;12.00;100.00;97889.66;12184704;19;20002;-79
2023/10/27 18:11:28;;;;;;;3.42;1.67;;;;;;;11.99;100.00;97884.47;12232581;19;20006;-79
2023/10/27 18:15:30;;;;;;;4.05;1.52;;;;;;;11.94;100.00;97895.59;12232008;19;20007;-79
2023/10/27 18:19:34;;;;;;;3.47;1.15;;;;;;;11.91;100.00;97898.97;12199054;19;20048;-79
2023/10/27 18:23:37;;;;;;;6.05;1.33;;;;;;;11.88;100.00;97892.13;12218905;19;20007;-79
2023/10/27 18:27:39;;;;;;;5.57;1.60;;;;;;;11.85;100.00;97893.53;12217237;19;20010;-79
2023/10/27 18:31:41;;;;;;;4.67;1.43;;;;;;;11.85;100.00;97901.81;12191011;19;20365;-79
2023/10/27 18:35:43;;;;;;;4.95;1.70;;;;;;;11.84;100.00;97902.13;12216592;19;20058;-79
2023/10/27 18:39:45;;;;;;;6.07;1.50;;;;;;;11.77;100.00;97904.44;12212564;19;20346;-80